Time;durP1;ratioP1;P1;durP2;ratioP2;P2;SDS_P1;SDS_P2;PMS_P1;PMS_P2;Temp;Humidity;BMP_temperature;BMP_pressure;BME280_temperature;BME280_humidity;BME280_pressure;Samples;Min_cycle;Max_cycle;Signal;HPM_P1;HPM_P2
2022/08/25 00:02:00;;;;;;;10.57;2.92;;;25.50;78.70;;;;;;5018544;28;20286;-76
2022/08/25 00:04:30;;;;;;;11.02;3.38;;;25.40;78.80;;;;;;5015761;28;20207;-77
2022/08/25 00:07:02;;;;;;;13.00;3.40;;;25.40;78.80;;;;;;5017409;28;20896;-76
2022/08/25 00:09:33;;;;;;;14.15;3.72;;;25.40;78.90;;;;;;5021251;28;20207;-77
2022/08/25 00:12:03;;;;;;;13.68;3.40;;;25.40;78.90;;;;;;5018316;28;20632;-77
2022/08/25 00:14:35;;;;;;;18.98;3.97;;;25.40;78.90;;;;;;5019057;28;20219;-76
2022/08/25 00:17:04;;;;;;;19.30;3.38;;;25.40;79.10;;;;;;5019102;28;20230;-76
2022/08/25 00:19:34;;;;;;;17.08;3.70;;;25.40;79.10;;;;;;5019113;28;20200;-77
2022/08/25 00:22:05;;;;;;;11.80;3.33;;;25.30;79.10;;;;;;5018679;28;20195;-77
2022/08/25 00:24:34;;;;;;;12.02;3.60;;;25.30;79.20;;;;;;5018465;28;20250;-77
2022/08/25 00:27:03;;;;;;;13.07;3.63;;;25.30;79.20;;;;;;5015234;28;20192;-77
2022/08/25 00:29:32;;;;;;;12.88;3.75;;;25.30;79.40;;;;;;5013253;28;20203;-77
2022/08/25 00:32:01;;;;;;;18.38;4.10;;;25.30;79.40;;;;;;5015825;28;20198;-76
2022/08/25 00:34:33;;;;;;;11.90;4.00;;;25.30;79.40;;;;;;5012490;28;20757;-76
2022/08/25 00:37:01;;;;;;;17.33;3.83;;;25.20;79.50;;;;;;5018927;28;20184;-76
2022/08/25 00:39:31;;;;;;;14.13;3.78;;;25.20;79.60;;;;;;5016414;28;20641;-77
2022/08/25 00:42:00;;;;;;;14.52;3.88;;;25.20;79.70;;;;;;5019314;28;20210;-77
2022/08/25 00:44:31;;;;;;;15.18;3.65;;;25.20;79.80;;;;;;5017698;28;20211;-77
2022/08/25 00:47:01;;;;;;;16.08;3.60;;;25.20;80.00;;;;;;5017380;28;20903;-77
2022/08/25 00:49:39;;;;;;;13.25;3.53;;;25.20;80.00;;;;;;5014545;28;20192;-76
2022/08/25 00:52:11;;;;;;;12.15;3.47;;;25.10;80.00;;;;;;5018182;28;20207;-77
2022/08/25 00:54:45;;;;;;;12.25;3.42;;;25.10;80.20;;;;;;5021290;28;20195;-78
2022/08/25 00:57:16;;;;;;;14.27;3.40;;;25.10;80.20;;;;;;5014979;28;20657;-77
2022/08/25 00:59:49;;;;;;;12.13;3.80;;;25.00;80.20;;;;;;5018441;28;20257;-77
2022/08/25 01:02:18;;;;;;;10.88;3.55;;;25.00;80.40;;;;;;5016196;28;20188;-76
2022/08/25 01:04:47;;;;;;;17.35;3.65;;;25.00;80.40;;;;;;5020685;28;20629;-78
2022/08/25 01:07:19;;;;;;;21.23;4.32;;;25.00;80.60;;;;;;5010419;28;20575;-77
2022/08/25 01:09:51;;;;;;;14.45;3.70;;;25.00;80.70;;;;;;5019505;28;20192;-77
2022/08/25 01:12:21;;;;;;;13.75;3.53;;;24.90;81.10;;;;;;5017076;28;20192;-77
2022/08/25 01:14:51;;;;;;;14.43;3.50;;;24.90;81.20;;;;;;5020113;28;20223;-77
2022/08/25 01:17:20;;;;;;;15.13;3.65;;;24.80;81.40;;;;;;5021862;28;20196;-76
2022/08/25 01:19:49;;;;;;;18.63;4.28;;;24.80;81.50;;;;;;5014124;28;20196;-77
2022/08/25 01:22:19;;;;;;;10.15;3.17;;;24.80;81.60;;;;;;5019899;28;20195;-76
2022/08/25 01:24:56;;;;;;;10.02;3.97;;;24.70;81.70;;;;;;5020844;28;20199;-77
2022/08/25 01:27:24;;;;;;;11.35;3.67;;;24.70;81.70;;;;;;5017035;28;20652;-77
2022/08/25 01:29:53;;;;;;;12.80;3.38;;;24.70;81.70;;;;;;5014890;28;20192;-77
2022/08/25 01:32:22;;;;;;;18.48;3.72;;;24.70;81.90;;;;;;5015229;28;20212;-76
2022/08/25 01:34:50;;;;;;;17.35;4.00;;;24.70;81.80;;;;;;5020752;28;20226;-76
2022/08/25 01:37:21;;;;;;;15.32;3.88;;;24.60;81.80;;;;;;5019063;28;20273;-77
2022/08/25 01:39:49;;;;;;;15.70;3.72;;;24.60;81.90;;;;;;5015186;28;20200;-76
2022/08/25 01:42:33;;;;;;;10.55;3.40;;;24.60;81.90;;;;;;5016394;28;20307;-77
2022/08/25 01:45:01;;;;;;;14.40;3.65;;;24.60;82.00;;;;;;5017473;28;20199;-76
2022/08/25 01:47:30;;;;;;;19.83;3.80;;;24.60;82.00;;;;;;5017201;28;20571;-76
2022/08/25 01:49:59;;;;;;;14.60;3.60;;;24.60;82.00;;;;;;5010803;28;20202;-76
2022/08/25 01:52:34;;;;;;;16.70;3.33;;;24.60;82.10;;;;;;5014604;28;20189;-76
2022/08/25 01:55:03;;;;;;;15.82;3.60;;;24.50;82.10;;;;;;5020984;28;20191;-76
2022/08/25 01:57:31;;;;;;;18.88;3.63;;;24.50;82.00;;;;;;5017376;28;20495;-77
2022/08/25 02:00:00;;;;;;;11.60;3.30;;;24.50;81.90;;;;;;5006461;28;20196;-77
2022/08/25 02:02:29;;;;;;;14.65;3.58;;;24.50;81.90;;;;;;5015704;28;20622;-77
2022/08/25 02:05:00;;;;;;;14.18;3.40;;;24.50;81.80;;;;;;5017189;28;20289;-75
2022/08/25 02:07:30;;;;;;;13.75;3.63;;;24.50;81.70;;;;;;5016749;28;20258;-76
2022/08/25 02:09:58;;;;;;;18.77;3.08;;;24.50;81.60;;;;;;5011680;28;20208;-75
2022/08/25 02:12:31;;;;;;;14.23;3.30;;;24.50;81.40;;;;;;5015429;28;20196;-76
2022/08/25 02:15:00;;;;;;;14.65;4.03;;;24.50;81.30;;;;;;5012361;28;20200;-76
2022/08/25 02:17:29;;;;;;;15.30;3.67;;;24.50;81.20;;;;;;5015298;28;20211;-76
2022/08/25 02:19:58;;;;;;;13.93;3.35;;;24.40;81.00;;;;;;5016902;28;20199;-76
2022/08/25 02:22:27;;;;;;;17.70;3.90;;;24.40;80.80;;;;;;5007330;28;20693;-76
2022/08/25 02:24:58;;;;;;;14.55;3.63;;;24.50;80.70;;;;;;5013412;28;20194;-77
2022/08/25 02:27:27;;;;;;;12.77;3.50;;;24.40;80.60;;;;;;5017301;28;20285;-77
2022/08/25 02:29:55;;;;;;;12.90;3.17;;;24.40;80.40;;;;;;5011934;28;20806;-78
2022/08/25 02:32:24;;;;;;;15.07;3.47;;;24.40;80.30;;;;;;5015325;28;20203;-77
2022/08/25 02:34:52;;;;;;;12.35;3.28;;;24.40;80.30;;;;;;5009843;28;20204;-77
2022/08/25 02:37:20;;;;;;;15.55;3.00;;;24.40;80.40;;;;;;5017224;28;20192;-78
2022/08/25 02:39:49;;;;;;;18.73;3.35;;;24.40;80.30;;;;;;5015753;28;20278;-75
2022/08/25 02:42:20;;;;;;;16.80;3.70;;;24.40;80.40;;;;;;5015158;28;20188;-77
2022/08/25 02:44:49;;;;;;;17.48;3.58;;;24.40;80.20;;;;;;5008388;28;20199;-77
2022/08/25 02:47:17;;;;;;;16.20;3.65;;;24.40;80.10;;;;;;5016079;28;20225;-77
2022/08/25 02:49:54;;;;;;;14.55;3.22;;;24.40;80.00;;;;;;5016791;28;20796;-77
2022/08/25 02:52:24;;;;;;;13.38;3.30;;;24.40;80.00;;;;;;5014746;28;20238;-77
2022/08/25 02:54:52;;;;;;;10.77;2.47;;;24.30;79.80;;;;;;5014965;28;20668;-78
2022/08/25 02:57:22;;;;;;;13.15;3.10;;;24.40;79.70;;;;;;5019568;28;20196;-77
2022/08/25 02:59:51;;;;;;;18.95;3.35;;;24.30;79.50;;;;;;5017452;28;20239;-77
2022/08/25 03:02:19;;;;;;;20.95;3.40;;;24.30;79.50;;;;;;5014229;28;20872;-77
2022/08/25 03:04:48;;;;;;;12.82;2.88;;;24.30;79.40;;;;;;5017209;28;20206;-76
2022/08/25 03:07:17;;;;;;;14.40;3.65;;;24.30;79.50;;;;;;5012494;28;20664;-77
2022/08/25 03:09:48;;;;;;;18.35;3.58;;;24.30;79.40;;;;;;5015603;28;20199;-76
2022/08/25 03:12:17;;;;;;;16.08;3.05;;;24.30;79.20;;;;;;5016341;28;20198;-74
2022/08/25 03:14:47;;;;;;;16.25;3.55;;;24.30;79.10;;;;;;5016082;28;20196;-77
2022/08/25 03:17:15;;;;;;;11.20;3.13;;;24.30;78.90;;;;;;5015546;28;20198;-77
2022/08/25 03:19:43;;;;;;;15.27;4.20;;;24.30;78.60;;;;;;5020415;28;20195;-76
2022/08/25 03:22:12;;;;;;;13.30;3.30;;;24.30;78.50;;;;;;5015730;28;20262;-75
2022/08/25 03:24:40;;;;;;;22.52;3.72;;;24.30;78.30;;;;;;5013281;28;20195;-76
2022/08/25 03:27:07;;;;;;;13.43;3.33;;;24.30;78.20;;;;;;5013611;28;20319;-75
2022/08/25 03:29:37;;;;;;;14.88;3.67;;;24.30;78.20;;;;;;5014108;28;20196;-74
2022/08/25 03:32:07;;;;;;;18.27;3.55;;;24.20;77.90;;;;;;5014915;28;20212;-76
2022/08/25 03:34:36;;;;;;;17.88;3.28;;;24.20;77.70;;;;;;5010008;28;20211;-75
2022/08/25 03:37:07;;;;;;;20.75;3.53;;;24.20;77.60;;;;;;5017254;28;20654;-76
2022/08/25 03:39:35;;;;;;;20.35;3.65;;;24.30;77.50;;;;;;5014699;28;20195;-76
2022/08/25 03:42:04;;;;;;;21.52;3.55;;;24.20;77.30;;;;;;5018331;28;20200;-75
2022/08/25 03:44:32;;;;;;;16.25;3.13;;;24.30;77.20;;;;;;5011942;28;20200;-75
2022/08/25 03:47:01;;;;;;;15.38;3.03;;;24.30;76.90;;;;;;5007531;28;20229;-75
2022/08/25 03:49:31;;;;;;;19.02;3.15;;;24.20;76.70;;;;;;5019073;28;20196;-76
2022/08/25 03:52:01;;;;;;;16.70;3.78;;;24.20;76.70;;;;;;5013893;28;20734;-75
2022/08/25 03:54:30;;;;;;;15.45;2.60;;;24.30;76.60;;;;;;5017358;28;20200;-76
2022/08/25 03:56:58;;;;;;;14.00;3.40;;;24.30;76.40;;;;;;5020827;28;20207;-76
2022/08/25 03:59:27;;;;;;;20.30;3.40;;;24.30;76.30;;;;;;5019969;28;20191;-75
2022/08/25 04:01:56;;;;;;;15.73;3.05;;;24.30;76.20;;;;;;5018734;28;20199;-76
2022/08/25 04:04:24;;;;;;;18.55;2.75;;;24.30;76.10;;;;;;5020007;28;20850;-77
2022/08/25 04:06:54;;;;;;;19.85;3.33;;;24.30;76.00;;;;;;5017571;28;20207;-75
2022/08/25 04:09:23;;;;;;;17.70;2.88;;;24.30;75.80;;;;;;5016969;28;20643;-76
2022/08/25 04:11:52;;;;;;;12.80;2.95;;;24.30;75.80;;;;;;5017354;28;20196;-75
2022/08/25 04:14:22;;;;;;;15.70;3.22;;;24.30;75.70;;;;;;5017216;28;20246;-75
2022/08/25 04:16:51;;;;;;;22.88;3.70;;;24.30;75.60;;;;;;5015070;28;20233;-76
2022/08/25 04:19:20;;;;;;;13.80;2.75;;;24.40;75.50;;;;;;5016914;28;20185;-75
2022/08/25 04:21:49;;;;;;;16.73;2.90;;;24.40;75.20;;;;;;5021673;28;20921;-75
2022/08/25 04:24:20;;;;;;;21.67;3.05;;;24.40;75.10;;;;;;5022045;28;20192;-76
2022/08/25 04:26:51;;;;;;;18.50;3.53;;;24.40;74.90;;;;;;5013443;28;20219;-77
2022/08/25 04:29:22;;;;;;;13.98;2.47;;;24.50;74.70;;;;;;5023445;28;20188;-74
2022/08/25 04:31:52;;;;;;;11.18;3.47;;;24.50;74.50;;;;;;5018883;28;20242;-75
2022/08/25 04:34:22;;;;;;;17.85;2.63;;;24.50;74.20;;;;;;5019209;28;20200;-76
2022/08/25 04:37:00;;;;;;;14.93;2.83;;;24.50;74.10;;;;;;5021857;28;20246;-76
2022/08/25 04:39:30;;;;;;;17.45;3.22;;;24.60;74.10;;;;;;5022804;28;20202;-76
2022/08/25 04:41:59;;;;;;;16.98;3.97;;;24.60;74.40;;;;;;5019491;28;20188;-78
2022/08/25 04:44:28;;;;;;;17.42;2.53;;;24.60;74.50;;;;;;5016801;28;20275;-78
2022/08/25 04:46:57;;;;;;;12.85;2.40;;;24.60;74.50;;;;;;5021117;28;20310;-76
2022/08/25 04:49:27;;;;;;;13.65;2.55;;;24.70;74.60;;;;;;5020793;28;20196;-76
2022/08/25 04:51:56;;;;;;;16.48;2.90;;;24.70;74.40;;;;;;5020897;28;20227;-76
2022/08/25 04:54:25;;;;;;;14.88;2.70;;;24.80;74.30;;;;;;5015448;28;20203;-77
2022/08/25 04:56:54;;;;;;;24.85;3.40;;;24.80;74.20;;;;;;5020113;28;20240;-76
2022/08/25 04:59:26;;;;;;;21.85;5.95;;;24.80;74.10;;;;;;5018870;28;20192;-77
2022/08/25 05:02:00;;;;;;;26.58;3.83;;;24.80;74.30;;;;;;5013514;28;20193;-77
2022/08/25 05:04:30;;;;;;;13.57;2.97;;;24.90;74.40;;;;;;5019264;28;21073;-78
2022/08/25 05:06:59;;;;;;;11.10;2.38;;;25.00;74.20;;;;;;5026445;28;20192;-78
2022/08/25 05:09:29;;;;;;;18.33;2.63;;;24.90;73.90;;;;;;5020433;28;20290;-78
2022/08/25 05:12:02;;;;;;;5.50;2.47;;;25.00;73.70;;;;;;5015154;28;20219;-78
2022/08/25 05:14:30;;;;;;;15.88;3.10;;;25.00;73.60;;;;;;5021569;28;20208;-78
2022/08/25 05:16:59;;;;;;;17.00;3.00;;;25.10;73.60;;;;;;5012225;28;21049;-79
2022/08/25 05:19:30;;;;;;;19.50;3.53;;;25.10;73.40;;;;;;5022437;28;20219;-78
2022/08/25 05:21:58;;;;;;;19.30;2.78;;;25.20;73.30;;;;;;5015775;28;20196;-78
2022/08/25 05:24:28;;;;;;;16.08;3.08;;;25.20;73.10;;;;;;5018728;28;20204;-77
2022/08/25 05:26:57;;;;;;;17.45;2.85;;;25.30;73.20;;;;;;5022276;28;20223;-77
2022/08/25 05:29:27;;;;;;;15.10;2.97;;;25.30;73.00;;;;;;5016185;28;20199;-75
2022/08/25 05:31:56;;;;;;;10.80;2.50;;;25.40;72.60;;;;;;5021228;28;21101;-76
2022/08/25 05:34:24;;;;;;;18.23;2.70;;;25.40;72.30;;;;;;5019382;28;20262;-78
2022/08/25 05:36:53;;;;;;;21.88;3.35;;;25.50;72.20;;;;;;5015444;28;20206;-78
2022/08/25 05:39:22;;;;;;;10.15;2.60;;;25.50;71.80;;;;;;5014705;28;20258;-76
2022/08/25 05:41:53;;;;;;;14.35;2.95;;;25.60;71.70;;;;;;5020039;28;20282;-77
2022/08/25 05:44:22;;;;;;;24.20;3.10;;;25.60;71.40;;;;;;5020951;28;20203;-79
2022/08/25 05:46:52;;;;;;;13.43;2.70;;;25.70;71.50;;;;;;5020364;28;20199;-76
2022/08/25 05:49:20;;;;;;;16.60;3.38;;;25.80;71.20;;;;;;5016833;28;20236;-80
2022/08/25 05:51:49;;;;;;;18.63;3.10;;;25.80;70.80;;;;;;5017335;28;20219;-80
2022/08/25 05:54:17;;;;;;;10.10;2.42;;;25.80;70.00;;;;;;5020401;28;20282;-78
2022/08/25 05:56:46;;;;;;;17.27;2.65;;;25.90;69.20;;;;;;5019680;28;20196;-78
2022/08/25 05:59:14;;;;;;;15.55;2.95;;;26.00;69.30;;;;;;5012210;28;20709;-76
2022/08/25 06:04:31;;;;;;;11.05;2.50;;;26.10;68.70;;;;;;5021454;28;20191;-79
2022/08/25 06:06:59;;;;;;;20.20;3.03;;;26.10;66.90;;;;;;5018157;28;20188;-78
2022/08/25 06:09:27;;;;;;;22.88;2.75;;;26.20;66.30;;;;;;5012287;28;20228;-80
2022/08/25 06:11:56;;;;;;;12.38;2.75;;;26.30;63.70;;;;;;5018029;28;20234;-80
2022/08/25 06:14:26;;;;;;;12.88;2.75;;;26.40;64.10;;;;;;5021592;28;20200;-78
2022/08/25 06:16:55;;;;;;;9.32;2.28;;;26.40;64.20;;;;;;5016755;28;20223;-79
2022/08/25 06:19:24;;;;;;;14.48;2.38;;;26.40;63.00;;;;;;5013507;28;20211;-79
2022/08/25 06:21:56;;;;;;;11.48;3.05;;;26.50;63.10;;;;;;5017450;28;20282;-77
2022/08/25 06:24:26;;;;;;;20.58;2.42;;;26.60;62.80;;;;;;5020786;28;20199;-79
2022/08/25 06:26:55;;;;;;;13.52;2.65;;;26.60;61.70;;;;;;5022405;28;20213;-79
2022/08/25 06:29:24;;;;;;;4.60;1.83;;;26.60;60.70;;;;;;5019804;28;20242;-78
2022/08/25 06:31:52;;;;;;;16.25;3.30;;;26.70;60.20;;;;;;5022504;28;20204;-78
2022/08/25 06:34:21;;;;;;;12.88;2.80;;;26.70;60.00;;;;;;5017570;28;20920;-78
2022/08/25 06:36:51;;;;;;;16.33;2.35;;;26.80;59.90;;;;;;5016099;28;20196;-78
2022/08/25 06:39:24;;;;;;;12.13;2.65;;;26.80;60.40;;;;;;5011224;28;20802;-80
2022/08/25 06:41:55;;;;;;;12.68;2.35;;;27.00;60.80;;;;;;5020518;28;20192;-78
2022/08/25 06:44:25;;;;;;;16.40;3.20;;;27.00;59.80;;;;;;5013113;28;20538;-77
2022/08/25 06:46:53;;;;;;;15.88;2.72;;;27.00;58.20;;;;;;5015524;28;20207;-79
2022/08/25 06:49:22;;;;;;;14.80;2.92;;;27.10;59.00;;;;;;5023043;28;20224;-79
2022/08/25 06:51:51;;;;;;;10.98;3.05;;;27.20;59.20;;;;;;5018507;28;20192;-78
2022/08/25 06:54:19;;;;;;;13.93;2.55;;;27.20;58.00;;;;;;5018254;28;20192;-79
2022/08/25 06:56:49;;;;;;;14.65;3.17;;;27.20;58.20;;;;;;5018053;28;20310;-78
2022/08/25 06:59:18;;;;;;;17.85;3.00;;;27.30;58.40;;;;;;5019974;28;20200;-75
2022/08/25 07:01:46;;;;;;;16.65;3.08;;;27.40;58.40;;;;;;5018636;28;20196;-78
2022/08/25 07:04:17;;;;;;;16.77;2.67;;;27.40;58.50;;;;;;5016527;28;20621;-75
2022/08/25 07:06:46;;;;;;;19.95;3.03;;;27.50;58.90;;;;;;5020270;28;20249;-76
2022/08/25 07:09:15;;;;;;;15.65;2.80;;;27.60;58.90;;;;;;5016539;28;20231;-76
2022/08/25 07:11:45;;;;;;;20.88;2.75;;;27.60;59.10;;;;;;5014092;28;20725;-75
2022/08/25 07:14:17;;;;;;;8.98;2.50;;;27.70;58.70;;;;;;5014590;28;20818;-75
2022/08/25 07:16:46;;;;;;;9.20;2.78;;;27.70;58.10;;;;;;5012062;28;20242;-77
2022/08/25 07:19:19;;;;;;;11.98;2.50;;;27.80;57.90;;;;;;5015360;28;20676;-77
2022/08/25 07:21:53;;;;;;;12.50;2.42;;;27.80;55.60;;;;;;5016195;28;20184;-79
2022/08/25 07:24:22;;;;;;;20.52;2.53;;;27.90;56.50;;;;;;5022055;28;20562;-77
2022/08/25 07:26:50;;;;;;;7.70;1.95;;;28.00;56.90;;;;;;5026523;28;20192;-75
2022/08/25 07:29:24;;;;;;;6.65;2.45;;;28.00;56.90;;;;;;5022688;28;20216;-79
2022/08/25 07:32:00;;;;;;;14.70;3.03;;;28.10;56.80;;;;;;5015006;28;20180;-77
2022/08/25 07:37:21;;;;;;;14.75;2.67;;;28.20;55.80;;;;;;5018206;28;20220;-77
2022/08/25 07:40:11;;;;;;;9.90;2.50;;;28.20;55.10;;;;;;5024918;28;20195;-78
2022/08/25 07:42:41;;;;;;;9.23;2.00;;;28.30;55.20;;;;;;5023159;28;20716;-79
2022/08/25 07:45:12;;;;;;;10.90;2.47;;;28.40;55.90;;;;;;5022363;28;20192;-78
2022/08/25 07:47:44;;;;;;;8.10;2.55;;;28.40;54.80;;;;;;5020063;28;20271;-77
2022/08/25 07:50:14;;;;;;;7.80;2.42;;;28.50;55.10;;;;;;5019798;28;20223;-78
2022/08/25 07:52:42;;;;;;;9.73;3.58;;;28.50;54.80;;;;;;5020211;28;20203;-78
2022/08/25 07:55:22;;;;;;;15.27;3.70;;;28.60;55.40;;;;;;5019830;28;20198;-78
2022/08/25 07:57:51;;;;;;;11.70;2.25;;;28.70;55.80;;;;;;5022992;28;20200;-77
2022/08/25 08:00:28;;;;;;;13.30;3.22;;;28.70;54.40;;;;;;5020182;28;20278;-79
2022/08/25 08:02:58;;;;;;;9.82;2.67;;;28.70;54.60;;;;;;5018043;28;20606;-76
2022/08/25 08:05:27;;;;;;;12.07;3.03;;;28.80;54.50;;;;;;5024962;28;20224;-78
2022/08/25 08:07:58;;;;;;;9.05;2.83;;;28.90;53.40;;;;;;5023450;28;20241;-78
2022/08/25 08:10:27;;;;;;;16.98;2.55;;;28.90;52.80;;;;;;5023961;28;20223;-76
2022/08/25 08:13:16;;;;;;;13.00;3.22;;;29.00;53.70;;;;;;5016470;28;20199;-76
2022/08/25 08:15:48;;;;;;;21.10;4.00;;;29.10;54.10;;;;;;5023419;28;20184;-77
2022/08/25 08:18:16;;;;;;;15.70;4.10;;;29.20;53.20;;;;;;5025980;28;20200;-77
2022/08/25 08:20:46;;;;;;;12.85;3.22;;;29.20;53.50;;;;;;5021713;28;20184;-76
2022/08/25 08:23:16;;;;;;;8.90;2.95;;;29.30;53.80;;;;;;5019382;28;20195;-77
2022/08/25 08:25:44;;;;;;;7.80;2.58;;;29.30;52.50;;;;;;5021041;28;20188;-74
2022/08/25 08:28:13;;;;;;;10.40;2.92;;;29.30;51.70;;;;;;5019238;28;20199;-76
2022/08/25 08:30:41;;;;;;;13.10;2.40;;;29.30;52.20;;;;;;5017732;28;20247;-76
2022/08/25 08:33:24;;;;;;;9.25;2.20;;;29.40;52.00;;;;;;5016920;28;20192;-77
2022/08/25 08:36:00;;;;;;;15.38;2.50;;;29.40;51.60;;;;;;5013763;28;20278;-75
2022/08/25 08:38:32;;;;;;;15.25;2.22;;;29.50;52.10;;;;;;5015977;28;20332;-77
2022/08/25 08:44:42;;;;;;;8.20;2.60;;;29.60;52.50;;;;;;5018436;28;20210;-75
2022/08/25 08:47:20;;;;;;;9.50;2.80;;;29.70;52.30;;;;;;5016620;28;20183;-75
2022/08/25 08:50:01;;;;;;;10.65;2.53;;;29.80;51.40;;;;;;5020304;28;20254;-73
2022/08/25 08:52:39;;;;;;;16.77;2.80;;;29.70;50.00;;;;;;5016944;28;20192;-74
2022/08/25 08:55:20;;;;;;;8.30;2.45;;;29.80;50.40;;;;;;5019270;28;20186;-75
2022/08/25 08:57:51;;;;;;;8.68;2.55;;;29.90;50.90;;;;;;5022088;28;20716;-76
2022/08/25 09:00:24;;;;;;;4.10;1.83;;;29.90;50.60;;;;;;5013647;28;20492;-76
2022/08/25 09:03:04;;;;;;;5.97;2.08;;;29.90;49.60;;;;;;5022870;28;20626;-76
2022/08/25 09:05:45;;;;;;;12.95;2.08;;;30.00;50.50;;;;;;5014841;28;20190;-76
2022/08/25 09:08:17;;;;;;;10.20;2.45;;;30.10;51.20;;;;;;5017929;28;20219;-73
2022/08/25 09:11:00;;;;;;;9.98;2.33;;;30.20;50.90;;;;;;5018165;28;20310;-77
2022/08/25 09:13:43;;;;;;;6.45;2.13;;;30.20;49.70;;;;;;5019956;28;20255;-73
2022/08/25 09:19:21;;;;;;;8.20;2.00;;;30.30;48.80;;;;;;5019651;28;20289;-76
2022/08/25 09:21:57;;;;;;;8.38;2.25;;;30.40;49.10;;;;;;5021654;28;20191;-75
2022/08/25 09:24:40;;;;;;;8.07;2.42;;;30.40;48.40;;;;;;5021692;28;20195;-77
2022/08/25 09:27:21;;;;;;;12.82;2.45;;;30.50;48.30;;;;;;5014247;28;20904;-74
2022/08/25 09:30:00;;;;;;;10.27;2.10;;;30.60;47.60;;;;;;5011435;28;20208;-75
2022/08/25 09:32:35;;;;;;;7.47;2.45;;;30.60;46.70;;;;;;5011488;28;20287;-75
2022/08/25 09:35:05;;;;;;;7.60;2.10;;;30.60;46.00;;;;;;5015473;28;20184;-74
2022/08/25 09:37:35;;;;;;;12.10;2.35;;;30.70;46.80;;;;;;5016910;28;20359;-74
2022/08/25 09:40:06;;;;;;;9.77;2.03;;;30.80;47.00;;;;;;5019937;28;20202;-76
2022/08/25 09:42:50;;;;;;;9.98;1.98;;;30.80;46.70;;;;;;5016671;28;20234;-75
2022/08/25 09:45:42;;;;;;;11.05;2.00;;;30.90;47.10;;;;;;5014393;28;20195;-76
2022/08/25 09:48:22;;;;;;;11.52;2.20;;;31.00;46.90;;;;;;5004162;28;20235;-73
2022/08/25 09:50:53;;;;;;;10.00;1.98;;;31.10;46.20;;;;;;5009782;28;20967;-76
2022/08/25 09:53:23;;;;;;;13.30;2.75;;;31.10;46.30;;;;;;5014029;28;20196;-76
2022/08/25 09:56:03;;;;;;;17.92;3.70;;;31.20;46.90;;;;;;5018259;28;20227;-75
2022/08/25 09:58:32;;;;;;;10.13;2.50;;;31.30;46.70;;;;;;5018185;28;20350;-75
2022/08/25 10:01:11;;;;;;;10.82;2.25;;;31.40;47.40;;;;;;5021375;28;20191;-75
2022/08/25 10:04:04;;;;;;;11.00;2.00;;;31.40;46.30;;;;;;5014551;28;20249;-75
2022/08/25 10:06:44;;;;;;;11.43;2.25;;;31.50;46.40;;;;;;5015059;28;20286;-76
2022/08/25 10:09:28;;;;;;;7.57;1.70;;;31.50;46.50;;;;;;5016001;28;20307;-74
2022/08/25 10:11:59;;;;;;;7.55;1.70;;;31.60;47.30;;;;;;5012984;28;20196;-74
2022/08/25 10:14:35;;;;;;;17.67;2.10;;;31.70;47.40;;;;;;5019475;28;20200;-74
2022/08/25 10:17:23;;;;;;;10.68;2.95;;;31.80;47.40;;;;;;5018530;28;20202;-75
2022/08/25 10:20:15;;;;;;;10.65;2.20;;;31.80;46.50;;;;;;5017278;28;20188;-76
2022/08/25 10:22:45;;;;;;;9.77;2.17;;;31.90;46.80;;;;;;5020661;28;20441;-76
2022/08/25 10:25:28;;;;;;;9.02;2.35;;;32.00;46.30;;;;;;5007371;28;20204;-74
2022/08/25 10:28:08;;;;;;;14.80;1.90;;;32.00;46.60;;;;;;5013885;28;20188;-77
2022/08/25 10:30:53;;;;;;;10.68;1.50;;;32.10;46.00;;;;;;5012653;28;20216;-75
2022/08/25 10:33:34;;;;;;;6.25;2.00;;;32.10;44.40;;;;;;5012217;28;20196;-75
2022/08/25 10:36:10;;;;;;;6.15;2.13;;;32.20;45.30;;;;;;5014026;28;20227;-76
2022/08/25 10:38:43;;;;;;;15.35;2.40;;;32.20;44.40;;;;;;5015127;28;20883;-74
2022/08/25 10:41:32;;;;;;;14.45;1.55;;;32.40;44.90;;;;;;5016464;28;20196;-79
2022/08/25 10:45:41;;;;;;;21.17;3.22;;;32.40;44.70;;;;;;5020299;28;20194;-75
2022/08/25 10:47:48;;;;;;;19.20;2.15;;;32.40;42.20;;;;;;5010411;28;20203;-74
2022/08/25 10:50:28;;;;;;;13.38;1.73;;;32.60;42.80;;;;;;5013032;28;20228;-79
2022/08/25 10:53:12;;;;;;;16.45;1.90;;;32.60;43.40;;;;;;5018377;28;20199;-74
2022/08/25 10:55:51;;;;;;;13.85;1.83;;;32.60;42.30;;;;;;5018106;28;20195;-76
2022/08/25 10:58:29;;;;;;;15.00;2.08;;;32.70;42.40;;;;;;5019728;28;20194;-78
2022/08/25 11:01:09;;;;;;;15.98;2.72;;;32.70;42.90;;;;;;5024439;28;20204;-78
2022/08/25 11:03:48;;;;;;;7.68;2.17;;;32.80;43.10;;;;;;5024599;28;20223;-76
2022/08/25 11:06:22;;;;;;;12.48;2.63;;;32.80;41.60;;;;;;5018481;28;20739;-76
2022/08/25 11:08:54;;;;;;;15.75;1.88;;;32.80;41.40;;;;;;5014499;28;20242;-74
2022/08/25 11:11:28;;;;;;;9.25;1.88;;;32.90;41.80;;;;;;5020547;28;20220;-77
2022/08/25 11:14:02;;;;;;;8.73;1.73;;;32.90;40.60;;;;;;5015376;28;20210;-76
2022/08/25 11:16:43;;;;;;;12.32;1.90;;;32.90;41.10;;;;;;5017975;28;20192;-78
2022/08/25 11:19:20;;;;;;;8.90;1.50;;;33.00;41.60;;;;;;5017881;28;20191;-76
2022/08/25 11:21:53;;;;;;;12.18;2.03;;;33.00;40.10;;;;;;5016863;28;20199;-74
2022/08/25 11:24:41;;;;;;;11.73;1.63;;;33.00;40.20;;;;;;5016796;28;20830;-75
2022/08/25 11:27:15;;;;;;;15.13;2.45;;;33.10;39.80;;;;;;5018960;28;20250;-74
2022/08/25 11:29:54;;;;;;;15.70;2.17;;;33.10;40.20;;;;;;5019657;28;20310;-75
2022/08/25 11:32:23;;;;;;;10.93;1.60;;;33.20;40.30;;;;;;5019434;28;20208;-77
2022/08/25 11:34:53;;;;;;;12.10;1.75;;;33.20;39.80;;;;;;5019941;28;20806;-79
2022/08/25 11:37:27;;;;;;;8.35;2.25;;;33.30;40.80;;;;;;5020351;28;20278;-75
2022/08/25 11:40:12;;;;;;;16.65;1.73;;;33.30;41.20;;;;;;5021676;28;20188;-75
2022/08/25 11:42:53;;;;;;;21.33;3.05;;;33.30;39.70;;;;;;5018813;28;20200;-79
2022/08/25 11:45:47;;;;;;;19.75;2.38;;;33.40;39.60;;;;;;5018908;28;20202;-77
2022/08/25 11:48:37;;;;;;;14.38;2.03;;;33.40;39.70;;;;;;5013434;28;20196;-77
2022/08/25 11:51:07;;;;;;;15.65;2.22;;;33.40;40.30;;;;;;4962356;28;20236;-79
2022/08/25 11:53:38;;;;;;;25.25;2.42;;;33.50;40.30;;;;;;5023705;28;20562;-78
2022/08/25 11:56:11;;;;;;;17.08;2.22;;;33.50;38.40;;;;;;5014714;28;20318;-75
2022/08/25 11:58:43;;;;;;;27.40;2.83;;;33.40;39.00;;;;;;5016959;28;20277;-77
2022/08/25 12:02:07;;;;;;;18.75;2.35;;;33.50;38.90;;;;;;5017640;28;20199;-78
2022/08/25 12:04:40;;;;;;;14.30;2.08;;;33.50;39.90;;;;;;5011971;28;20199;-76
2022/08/25 12:07:24;;;;;;;8.10;2.40;;;33.60;39.70;;;;;;5012443;28;20207;-76
2022/08/25 12:10:15;;;;;;;17.80;1.77;;;33.60;40.00;;;;;;5020406;28;20186;-77
2022/08/25 12:13:02;;;;;;;15.13;2.13;;;33.70;40.40;;;;;;5015491;28;20204;-75
2022/08/25 12:15:56;;;;;;;14.38;2.33;;;33.70;40.30;;;;;;5018229;28;20275;-77
2022/08/25 12:18:45;;;;;;;13.18;2.20;;;33.70;39.50;;;;;;5021606;28;20191;-77
2022/08/25 12:21:32;;;;;;;17.52;2.30;;;33.60;38.70;;;;;;5013620;28;20184;-77
2022/08/25 12:24:16;;;;;;;16.55;2.58;;;33.70;39.70;;;;;;5021654;28;20701;-77
2022/08/25 12:26:53;;;;;;;17.63;2.17;;;33.70;40.00;;;;;;5014966;28;20195;-75
2022/08/25 12:29:31;;;;;;;10.80;1.98;;;33.70;40.20;;;;;;5024018;28;20211;-78
2022/08/25 12:32:20;;;;;;;18.75;2.33;;;33.80;40.50;;;;;;5015029;28;20204;-77
2022/08/25 12:35:19;;;;;;;16.35;2.25;;;33.80;40.50;;;;;;5015142;28;20199;-77
2022/08/25 12:37:58;;;;;;;17.00;1.80;;;33.80;39.40;;;;;;5013903;28;20656;-79
2022/08/25 12:40:32;;;;;;;17.38;1.90;;;33.80;40.30;;;;;;5012285;28;20192;-77
2022/08/25 12:43:04;;;;;;;16.20;2.65;;;33.80;39.60;;;;;;5009398;28;20198;-77
2022/08/25 12:45:37;;;;;;;13.25;2.55;;;33.80;39.10;;;;;;5015939;28;20729;-75
2022/08/25 12:48:54;;;;;;;18.98;2.13;;;33.80;39.80;;;;;;5020916;28;20587;-76
2022/08/25 12:51:26;;;;;;;23.55;2.60;;;33.80;38.90;;;;;;5016256;28;20223;-77
2022/08/25 12:54:01;;;;;;;10.88;1.60;;;33.80;39.10;;;;;;5013348;28;20183;-76
2022/08/25 12:56:37;;;;;;;13.68;2.22;;;33.80;38.00;;;;;;5016704;28;20231;-75
2022/08/25 12:59:17;;;;;;;21.80;2.95;;;33.70;38.40;;;;;;5019433;28;20183;-78
2022/08/25 13:02:17;;;;;;;19.65;2.88;;;33.80;38.50;;;;;;5012702;28;20192;-74
2022/08/25 13:05:12;;;;;;;16.60;2.47;;;33.80;39.00;;;;;;5015392;28;20544;-75
2022/08/25 13:08:06;;;;;;;11.85;2.35;;;33.80;38.30;;;;;;5021718;28;20301;-75
2022/08/25 13:10:47;;;;;;;19.92;2.65;;;33.80;39.30;;;;;;5013409;28;20187;-76
2022/08/25 13:13:31;;;;;;;11.43;2.20;;;33.80;38.40;;;;;;5016216;28;20301;-76
2022/08/25 13:16:02;;;;;;;14.98;2.42;;;33.80;39.00;;;;;;5009061;28;20668;-77
2022/08/25 13:18:33;;;;;;;17.17;2.75;;;33.80;39.50;;;;;;5017892;28;20196;-77
2022/08/25 13:21:13;;;;;;;9.57;2.85;;;33.80;39.40;;;;;;5020079;28;20278;-76
2022/08/25 13:23:49;;;;;;;19.67;2.33;;;33.90;39.20;;;;;;5019924;28;20322;-78